In Rescue
 
Open Full Screen Window  High Contrast Mode
July 25, 2021 7:35 AM EDT
Weather Information
Wind Direction
  ---
Wind Speed
  00 kt (0 mph)
Wind Gust
  00 kt (0 mph)
Altimeter
29.95 in
Visibility
3 SM
Temperature
22° C
72° F
Dewpoint
22° C
72° F
Humidity
100%
1hr Rain Fall
00.00 in.
24hr Rain Fall
00.45 in.
Sky Condition
Overcast @ 1,400 ft
Broken @ 100 ft
LIFR

METAR KEDJ 251135Z AUTO 00000KT 3SM BKN001 OVC014 22/22 A2995 RMK AO1

FAA Disclaimer: The data displayed is for advisory purposes only and is not to be used for flight planning or operations.